createdAt,value
2022-09-15T00:00:12.195Z,19.91
2022-09-15T00:01:43.567Z,20.48
2022-09-15T00:03:15.140Z,20.20
2022-09-15T00:04:46.620Z,20.46
2022-09-15T00:06:18.017Z,20.28
2022-09-15T00:07:49.534Z,19.89
2022-09-15T00:09:21.160Z,20.60
2022-09-15T00:10:57.615Z,20.22
2022-09-15T00:12:28.977Z,20.93
2022-09-15T00:14:00.591Z,20.26
2022-09-15T00:15:32.785Z,20.69
2022-09-15T00:17:04.537Z,20.93
2022-09-15T00:18:35.983Z,20.68
2022-09-15T00:20:07.511Z,20.78
2022-09-15T00:21:38.912Z,21.12
2022-09-15T00:23:10.282Z,20.96
2022-09-15T00:24:41.690Z,20.89
2022-09-15T00:26:13.036Z,21.69
2022-09-15T00:27:44.675Z,22.10
2022-09-15T00:29:16.212Z,21.38
2022-09-15T00:30:47.858Z,21.03
2022-09-15T00:32:19.394Z,20.50
2022-09-15T00:33:50.823Z,21.01
2022-09-15T00:35:22.171Z,21.83
2022-09-15T00:36:53.545Z,21.73
2022-09-15T00:38:25.075Z,21.31
2022-09-15T00:39:56.641Z,21.10
2022-09-15T00:41:28.130Z,21.44
2022-09-15T00:42:59.513Z,21.00
2022-09-15T00:44:31.008Z,21.41
2022-09-15T00:46:02.378Z,21.65
2022-09-15T00:47:33.976Z,21.55
2022-09-15T00:49:05.398Z,21.64
2022-09-15T00:50:36.890Z,21.72
2022-09-15T00:52:08.206Z,21.84
2022-09-15T00:53:39.670Z,22.10
2022-09-15T00:55:11.187Z,21.71
2022-09-15T00:56:42.484Z,21.48
2022-09-15T00:58:13.778Z,20.81
2022-09-15T00:59:45.067Z,21.27
2022-09-15T01:01:16.741Z,21.75
2022-09-15T01:02:48.245Z,21.58
2022-09-15T01:04:19.823Z,21.48
2022-09-15T01:05:51.795Z,22.27
2022-09-15T01:07:23.440Z,21.40
2022-09-15T01:08:55.192Z,21.82
2022-09-15T01:10:26.831Z,22.13
2022-09-15T01:11:58.446Z,22.10
2022-09-15T01:13:29.752Z,21.58
2022-09-15T01:15:01.027Z,21.16
2022-09-15T01:16:32.494Z,22.25
2022-09-15T01:18:04.058Z,20.97
2022-09-15T01:19:35.442Z,21.67
2022-09-15T01:21:06.861Z,21.59
2022-09-15T01:22:38.484Z,21.78
2022-09-15T01:24:09.841Z,21.44
2022-09-15T01:25:41.205Z,21.72
2022-09-15T01:27:37.797Z,22.00
2022-09-15T01:29:12.790Z,21.41
2022-09-15T01:30:44.051Z,21.61
2022-09-15T01:32:15.703Z,21.03
2022-09-15T01:33:47.497Z,21.86
2022-09-15T01:35:19.159Z,21.38
2022-09-15T01:36:50.434Z,21.22
2022-09-15T01:38:22.133Z,21.92
2022-09-15T01:39:53.685Z,22.23
2022-09-15T01:41:24.982Z,21.82
2022-09-15T01:42:56.485Z,21.53
2022-09-15T01:44:27.814Z,22.01
2022-09-15T01:45:59.540Z,22.56
2022-09-15T01:47:30.960Z,22.20
2022-09-15T01:49:02.284Z,21.64
2022-09-15T01:50:33.624Z,22.16
2022-09-15T01:52:04.904Z,21.22
2022-09-15T01:53:36.652Z,21.31
2022-09-15T01:55:08.107Z,21.34
2022-09-15T01:56:39.504Z,21.64
2022-09-15T01:58:10.815Z,22.10
2022-09-15T01:59:42.165Z,22.19
2022-09-15T02:01:13.807Z,21.48
2022-09-15T02:02:45.321Z,21.17
2022-09-15T02:04:16.800Z,21.33
2022-09-15T02:05:48.034Z,22.08
2022-09-15T02:07:19.477Z,22.42
2022-09-15T02:08:50.926Z,23.02
2022-09-15T02:10:22.623Z,22.71
2022-09-15T02:11:54.054Z,22.13
2022-09-15T02:13:25.386Z,22.43
2022-09-15T02:14:56.770Z,21.87
2022-09-15T02:16:28.373Z,21.62
2022-09-15T02:17:59.875Z,21.50
2022-09-15T02:19:31.192Z,22.03
2022-09-15T02:21:02.547Z,21.51
2022-09-15T02:22:33.833Z,21.41
2022-09-15T02:24:05.237Z,21.52
2022-09-15T02:25:36.605Z,21.07
2022-09-15T02:27:09.303Z,21.49
2022-09-15T02:28:41.599Z,22.34
2022-09-15T02:30:13.360Z,21.64
2022-09-15T02:31:45.418Z,22.49
2022-09-15T02:33:17.365Z,21.75
2022-09-15T02:34:48.743Z,21.50
2022-09-15T02:36:20.077Z,21.56
2022-09-15T02:37:52.280Z,21.99
2022-09-15T02:39:25.908Z,22.01
2022-09-15T02:40:57.468Z,22.14
2022-09-15T02:42:28.872Z,22.18
2022-09-15T02:44:01.395Z,22.71
2022-09-15T02:45:33.185Z,21.76
2022-09-15T02:47:04.965Z,21.86
2022-09-15T02:48:43.988Z,22.07
2022-09-15T02:50:22.183Z,22.38
2022-09-15T02:51:53.536Z,21.46
2022-09-15T02:53:24.966Z,21.53
2022-09-15T02:54:56.399Z,21.28
2022-09-15T02:56:27.742Z,20.77
2022-09-15T02:57:58.995Z,20.63
2022-09-15T02:59:30.451Z,21.21
2022-09-15T03:01:06.892Z,20.82
2022-09-15T03:02:38.372Z,20.78
2022-09-15T03:04:09.723Z,20.69
2022-09-15T03:05:41.288Z,20.70
2022-09-15T03:07:12.730Z,21.32
2022-09-15T03:08:44.196Z,21.72
2022-09-15T03:10:15.608Z,21.19
2022-09-15T03:11:47.120Z,21.90
2022-09-15T03:13:18.614Z,21.35
2022-09-15T03:14:49.949Z,21.04
2022-09-15T03:16:21.591Z,21.54
2022-09-15T03:17:58.098Z,21.93
2022-09-15T03:19:29.360Z,21.51
2022-09-15T03:21:00.818Z,21.84
2022-09-15T03:22:32.507Z,21.86
2022-09-15T03:24:04.078Z,21.72
2022-09-15T03:25:35.625Z,21.82
2022-09-15T03:27:07.007Z,21.57
2022-09-15T03:28:38.368Z,22.17
2022-09-15T03:30:09.813Z,21.89
2022-09-15T03:31:46.336Z,21.52
2022-09-15T03:33:17.789Z,21.39
2022-09-15T03:34:49.398Z,21.68
2022-09-15T03:36:20.940Z,21.87
2022-09-15T03:37:52.357Z,21.77
2022-09-15T03:39:23.694Z,21.68
2022-09-15T03:40:55.106Z,22.41
2022-09-15T03:42:26.466Z,21.56
2022-09-15T03:43:57.817Z,21.35
2022-09-15T03:45:29.183Z,21.57
2022-09-15T03:47:02.010Z,22.14
2022-09-15T03:48:33.306Z,22.05
2022-09-15T03:50:04.738Z,21.23
2022-09-15T03:51:36.188Z,21.84
2022-09-15T03:53:07.556Z,21.77
2022-09-15T03:54:38.898Z,22.29
2022-09-15T03:56:10.175Z,21.95
2022-09-15T03:57:41.576Z,21.55
2022-09-15T03:59:13.241Z,21.27
2022-09-15T04:00:44.844Z,22.02
2022-09-15T04:02:16.498Z,22.53
2022-09-15T04:03:51.064Z,21.95
2022-09-15T04:05:24.121Z,21.67
2022-09-15T04:06:55.440Z,22.24
2022-09-15T04:08:26.993Z,22.16
2022-09-15T04:09:58.337Z,21.46
2022-09-15T04:11:30.062Z,21.84
2022-09-15T04:13:01.423Z,22.37
2022-09-15T04:14:32.776Z,21.75
2022-09-15T04:16:04.180Z,22.18
2022-09-15T04:17:35.671Z,22.24
2022-09-15T04:19:06.900Z,22.10
2022-09-15T04:20:38.262Z,21.97
2022-09-15T04:22:09.533Z,22.70
2022-09-15T04:23:41.000Z,22.59
2022-09-15T04:25:12.327Z,21.88
2022-09-15T04:26:43.881Z,22.26
2022-09-15T04:28:16.691Z,21.70
2022-09-15T04:29:48.154Z,22.82
2022-09-15T04:31:20.256Z,22.09
2022-09-15T04:32:51.603Z,22.18
2022-09-15T04:34:23.179Z,22.39
2022-09-15T04:35:54.662Z,21.88
2022-09-15T04:37:26.264Z,21.84
2022-09-15T04:38:58.245Z,21.28
2022-09-15T04:40:29.826Z,22.01
2022-09-15T04:42:01.402Z,22.52
2022-09-15T04:43:32.684Z,21.59
2022-09-15T04:45:03.980Z,21.41
2022-09-15T04:46:35.292Z,21.99
2022-09-15T04:48:06.580Z,21.60
2022-09-15T04:49:37.854Z,21.98
2022-09-15T04:51:09.436Z,21.86
2022-09-15T04:52:40.844Z,21.54
2022-09-15T04:54:12.265Z,21.14
2022-09-15T04:55:43.768Z,21.91
2022-09-15T04:57:15.153Z,21.30
2022-09-15T04:58:46.430Z,20.86
2022-09-15T05:00:17.754Z,21.39
2022-09-15T05:01:49.200Z,21.51
2022-09-15T05:03:20.609Z,21.56
2022-09-15T05:04:52.091Z,21.37
2022-09-15T05:06:23.698Z,20.54
2022-09-15T05:07:55.207Z,21.86
2022-09-15T05:09:26.733Z,20.83
2022-09-15T05:10:58.121Z,20.59
2022-09-15T05:12:29.516Z,21.01
2022-09-15T05:14:00.781Z,21.55
2022-09-15T05:15:32.280Z,21.70
2022-09-15T05:17:03.866Z,20.96
2022-09-15T05:18:35.209Z,20.96
2022-09-15T05:20:06.635Z,20.79
2022-09-15T05:21:38.109Z,21.28
2022-09-15T05:23:09.479Z,21.30
2022-09-15T05:24:40.888Z,21.69
2022-09-15T05:26:12.510Z,20.97
2022-09-15T05:27:44.059Z,20.38
2022-09-15T05:29:20.450Z,20.85
2022-09-15T05:30:51.954Z,21.06
2022-09-15T05:32:23.442Z,20.75
2022-09-15T05:33:54.858Z,20.64
2022-09-15T05:35:26.513Z,19.74
2022-09-15T05:36:57.837Z,19.91
2022-09-15T05:38:29.101Z,19.46
2022-09-15T05:40:03.167Z,20.16
2022-09-15T05:41:36.521Z,20.07
2022-09-15T05:43:08.244Z,19.86
2022-09-15T05:44:39.812Z,20.15
2022-09-15T05:46:11.522Z,19.66
2022-09-15T05:47:43.067Z,19.97
2022-09-15T05:49:14.701Z,19.83
2022-09-15T05:50:46.125Z,20.02
2022-09-15T05:52:17.674Z,19.68
2022-09-15T05:53:54.239Z,19.46
2022-09-15T05:55:25.852Z,20.08
2022-09-15T05:56:57.362Z,19.94
2022-09-15T05:58:28.792Z,19.48
2022-09-15T06:00:00.179Z,19.74
2022-09-15T06:01:31.649Z,19.86
2022-09-15T06:03:03.155Z,19.43
2022-09-15T06:04:34.480Z,19.01
2022-09-15T06:06:06.220Z,19.49
2022-09-15T06:07:37.512Z,19.45
2022-09-15T06:09:09.469Z,19.44
2022-09-15T06:10:46.514Z,18.54
2022-09-15T06:12:18.363Z,18.86
2022-09-15T06:13:49.917Z,19.51
2022-09-15T06:15:21.285Z,19.27
2022-09-15T06:16:58.156Z,18.38
2022-09-15T06:18:32.506Z,18.69
2022-09-15T06:20:14.174Z,19.24
2022-09-15T06:21:52.040Z,18.90
2022-09-15T06:23:25.920Z,19.50
2022-09-15T06:25:04.437Z,19.07
2022-09-15T06:26:42.072Z,19.06
2022-09-15T06:28:13.880Z,19.23
2022-09-15T06:29:45.725Z,18.26
2022-09-15T06:31:17.388Z,18.95
2022-09-15T06:32:48.857Z,18.81
2022-09-15T06:34:20.600Z,19.21
2022-09-15T06:35:52.189Z,19.43
2022-09-15T06:37:23.665Z,19.29
2022-09-15T06:38:55.556Z,18.78
2022-09-15T06:40:27.431Z,18.60
2022-09-15T06:42:02.793Z,19.32
2022-09-15T06:43:35.579Z,18.39
2022-09-15T06:45:07.021Z,18.66
2022-09-15T06:46:39.104Z,18.99
2022-09-15T06:48:23.996Z,18.75
2022-09-15T06:49:56.421Z,18.48
2022-09-15T06:51:28.188Z,18.58
2022-09-15T06:53:00.082Z,18.67
2022-09-15T06:54:31.556Z,18.22
2022-09-15T06:56:03.102Z,18.51
2022-09-15T06:57:34.785Z,18.08
2022-09-15T06:59:07.133Z,17.69
2022-09-15T07:00:38.849Z,17.74
2022-09-15T07:02:10.423Z,17.92
2022-09-15T07:03:42.141Z,18.00
2022-09-15T07:05:13.668Z,18.03
2022-09-15T07:06:45.094Z,17.65
2022-09-15T07:08:16.450Z,17.51
2022-09-15T07:09:49.142Z,17.16
2022-09-15T07:11:20.883Z,18.13
2022-09-15T07:12:52.422Z,17.47
2022-09-15T07:14:23.978Z,17.40
2022-09-15T07:15:55.489Z,17.07
2022-09-15T07:17:27.323Z,18.14
2022-09-15T07:18:58.970Z,18.40
2022-09-15T07:20:30.460Z,18.17
2022-09-15T07:22:02.119Z,17.84
2022-09-15T07:23:33.603Z,17.12
2022-09-15T07:25:06.176Z,16.56
2022-09-15T07:26:37.890Z,16.36
2022-09-15T07:28:09.509Z,16.69
2022-09-15T07:29:41.081Z,16.55
2022-09-15T07:31:13.216Z,15.92
2022-09-15T07:32:44.939Z,15.97
2022-09-15T07:34:16.238Z,15.45
2022-09-15T07:35:47.650Z,15.28
2022-09-15T07:37:19.167Z,15.71
2022-09-15T07:38:55.930Z,14.89
2022-09-15T07:40:27.968Z,15.03
2022-09-15T07:41:59.587Z,15.51
2022-09-15T07:43:31.047Z,16.36
2022-09-15T07:45:02.528Z,16.07
2022-09-15T07:46:34.177Z,15.57
2022-09-15T07:48:05.472Z,14.57
2022-09-15T07:49:36.907Z,14.58
2022-09-15T07:51:08.518Z,13.52
2022-09-15T07:52:40.453Z,13.26
2022-09-15T07:54:13.198Z,13.46
2022-09-15T07:55:44.621Z,13.14
2022-09-15T07:57:21.084Z,13.55
2022-09-15T07:58:52.504Z,13.38
2022-09-15T08:00:24.030Z,12.62
2022-09-15T08:01:56.109Z,12.82
2022-09-15T08:03:27.782Z,12.58
2022-09-15T08:04:59.211Z,12.56
2022-09-15T08:06:30.673Z,12.39
2022-09-15T08:08:02.137Z,12.09
2022-09-15T08:09:39.768Z,11.80
2022-09-15T08:11:15.098Z,11.66
2022-09-15T08:12:47.804Z,11.84
2022-09-15T08:14:19.181Z,11.59
2022-09-15T08:15:50.587Z,11.40
2022-09-15T08:17:22.073Z,10.34
2022-09-15T08:18:53.855Z,10.70
2022-09-15T08:20:25.398Z,10.53
2022-09-15T08:22:01.900Z,9.89
2022-09-15T08:23:33.275Z,9.62
2022-09-15T08:25:04.755Z,9.75
2022-09-15T08:26:36.189Z,9.06
2022-09-15T08:28:07.484Z,9.06
2022-09-15T08:29:39.038Z,9.00
2022-09-15T08:31:10.420Z,8.25
2022-09-15T08:32:42.167Z,7.92
2022-09-15T08:34:13.428Z,7.94
2022-09-15T08:35:44.925Z,7.62
2022-09-15T08:37:16.502Z,8.43
2022-09-15T08:38:47.908Z,8.29
2022-09-15T08:40:19.433Z,8.70
2022-09-15T08:41:51.364Z,8.56
2022-09-15T08:43:23.138Z,8.75
2022-09-15T08:44:54.629Z,8.48
2022-09-15T08:46:26.767Z,8.16
2022-09-15T08:47:58.365Z,8.19
2022-09-15T08:49:50.685Z,8.62
2022-09-15T08:51:22.831Z,9.09
2022-09-15T08:52:54.250Z,9.38
2022-09-15T08:54:25.629Z,9.43
2022-09-15T08:55:56.948Z,9.95
2022-09-15T08:57:28.344Z,8.95
2022-09-15T08:58:59.826Z,9.07
2022-09-15T09:00:32.688Z,9.04
2022-09-15T09:02:04.075Z,8.30
2022-09-15T09:03:35.655Z,7.02
2022-09-15T09:05:08.039Z,6.68
2022-09-15T09:06:39.498Z,7.37
2022-09-15T09:08:10.823Z,8.01
2022-09-15T09:09:42.145Z,7.34
2022-09-15T09:11:13.485Z,6.91
2022-09-15T09:12:45.198Z,6.28
2022-09-15T09:14:16.631Z,6.60
2022-09-15T09:15:48.127Z,6.36
2022-09-15T09:17:24.620Z,6.44
2022-09-15T09:18:56.098Z,5.89
2022-09-15T09:20:27.649Z,4.52
2022-09-15T09:21:59.021Z,2.86
2022-09-15T09:23:30.828Z,3.83
2022-09-15T09:25:11.588Z,3.21
2022-09-15T09:26:47.710Z,2.35
2022-09-15T09:28:19.314Z,2.17
2022-09-15T09:29:50.654Z,2.14
2022-09-15T09:31:22.112Z,1.77
2022-09-15T09:32:53.506Z,1.87
2022-09-15T09:34:24.948Z,1.89
2022-09-15T09:35:56.415Z,2.10
2022-09-15T09:37:27.817Z,2.29
2022-09-15T09:38:59.380Z,2.13
2022-09-15T09:40:31.038Z,2.22
2022-09-15T09:42:02.413Z,2.08
2022-09-15T09:43:33.857Z,2.46
2022-09-15T09:45:05.299Z,2.08
2022-09-15T09:46:36.791Z,2.28
2022-09-15T09:48:13.596Z,2.38
2022-09-15T09:49:45.166Z,2.28
2022-09-15T09:51:16.689Z,2.05
2022-09-15T09:53:08.599Z,1.75
2022-09-15T09:54:51.802Z,1.68
2022-09-15T09:56:39.620Z,1.59
2022-09-15T09:58:12.916Z,1.54
2022-09-15T09:59:44.332Z,1.76
2022-09-15T10:01:16.332Z,1.68
2022-09-15T10:02:47.965Z,1.52
2022-09-15T10:04:19.583Z,1.79
2022-09-15T10:05:50.990Z,1.52
2022-09-15T10:07:22.398Z,1.42
2022-09-15T10:08:53.903Z,1.39
2022-09-15T10:10:25.319Z,1.25
2022-09-15T10:11:56.866Z,1.37
2022-09-15T10:13:28.278Z,1.38
2022-09-15T10:14:59.788Z,1.30
2022-09-15T10:16:31.431Z,1.42
2022-09-15T10:18:03.144Z,1.41
2022-09-15T10:19:34.518Z,1.50
2022-09-15T10:21:05.892Z,1.31
2022-09-15T10:22:37.362Z,1.67
2022-09-15T10:24:08.815Z,1.51
2022-09-15T10:25:57.950Z,2.00
2022-09-15T10:27:30.315Z,1.81
2022-09-15T10:29:06.631Z,1.80
2022-09-15T10:30:38.108Z,1.78
2022-09-15T10:32:09.566Z,2.03
2022-09-15T10:33:40.977Z,1.97
2022-09-15T10:35:12.626Z,1.61
2022-09-15T10:36:44.156Z,1.80
2022-09-15T10:38:15.546Z,1.36
2022-09-15T10:39:47.024Z,1.52
2022-09-15T10:41:18.445Z,1.52
2022-09-15T10:42:49.943Z,1.49
2022-09-15T10:44:21.601Z,1.18
2022-09-15T10:45:53.414Z,1.33
2022-09-15T10:47:25.252Z,1.61
2022-09-15T10:48:56.800Z,1.62
2022-09-15T10:50:28.203Z,1.71
2022-09-15T10:51:59.676Z,1.28
2022-09-15T10:53:31.272Z,1.45
2022-09-15T10:55:07.586Z,1.33
2022-09-15T10:56:39.497Z,1.85
2022-09-15T10:58:11.062Z,1.51
2022-09-15T10:59:42.633Z,1.77
2022-09-15T11:01:14.384Z,1.53
2022-09-15T11:02:46.009Z,1.92
2022-09-15T11:04:17.345Z,1.59
2022-09-15T11:05:48.760Z,1.46
2022-09-15T11:07:25.287Z,1.40
2022-09-15T11:08:56.589Z,2.17
2022-09-15T11:10:27.973Z,2.67
2022-09-15T11:11:59.322Z,2.32
2022-09-15T11:13:30.681Z,2.33
2022-09-15T11:15:02.133Z,2.57
2022-09-15T11:16:33.615Z,2.47
2022-09-15T11:18:04.921Z,2.30
2022-09-15T11:19:36.228Z,2.67
2022-09-15T11:21:07.597Z,2.50
2022-09-15T11:22:38.994Z,2.54
2022-09-15T11:24:10.426Z,2.35
2022-09-15T11:25:41.743Z,2.43
2022-09-15T11:27:13.204Z,2.53
2022-09-15T11:28:44.519Z,2.10
2022-09-15T11:30:15.916Z,2.17
2022-09-15T11:31:47.528Z,2.07
2022-09-15T11:33:20.006Z,2.13
2022-09-15T11:34:51.815Z,2.21
2022-09-15T11:36:23.219Z,2.34
2022-09-15T11:37:54.568Z,2.07
2022-09-15T11:39:26.152Z,2.07
2022-09-15T11:40:57.788Z,1.82
2022-09-15T11:42:29.292Z,1.89
2022-09-15T11:44:00.857Z,1.98
2022-09-15T11:45:32.147Z,1.62
2022-09-15T11:47:03.940Z,1.46
2022-09-15T11:48:37.225Z,1.45
2022-09-15T11:50:08.773Z,1.59
2022-09-15T11:51:40.630Z,1.48
2022-09-15T11:53:11.973Z,1.30
2022-09-15T11:54:43.400Z,1.16
2022-09-15T11:56:14.978Z,1.25
2022-09-15T11:57:46.999Z,1.41
2022-09-15T11:59:18.629Z,1.28
2022-09-15T12:00:49.985Z,1.37
2022-09-15T12:02:21.438Z,1.08
2022-09-15T12:03:52.976Z,1.28
2022-09-15T12:05:24.434Z,1.24
2022-09-15T12:06:56.215Z,1.49
2022-09-15T12:08:29.209Z,1.25
2022-09-15T12:10:00.783Z,1.31
2022-09-15T12:11:32.122Z,1.60
2022-09-15T12:13:03.825Z,1.45
2022-09-15T12:14:35.623Z,1.60
2022-09-15T12:16:07.507Z,1.55
2022-09-15T12:17:38.894Z,1.34
2022-09-15T12:19:10.295Z,1.44
2022-09-15T12:20:41.605Z,1.70
2022-09-15T12:22:12.968Z,1.50
2022-09-15T12:23:44.518Z,1.73
2022-09-15T12:25:15.915Z,2.10
2022-09-15T12:26:47.451Z,1.66
2022-09-15T12:28:20.339Z,1.54
2022-09-15T12:29:51.813Z,1.46
2022-09-15T12:31:23.525Z,1.61
2022-09-15T12:32:55.036Z,1.85
2022-09-15T12:34:26.644Z,1.89
2022-09-15T12:35:58.259Z,1.65
2022-09-15T12:37:29.670Z,1.88
2022-09-15T12:39:02.231Z,2.06
2022-09-15T12:40:33.727Z,2.17
2022-09-15T12:42:05.548Z,2.06
2022-09-15T12:43:36.933Z,1.73
2022-09-15T12:45:08.436Z,1.68
2022-09-15T12:46:40.155Z,1.82
2022-09-15T12:48:11.692Z,1.79
2022-09-15T12:49:43.338Z,1.81
2022-09-15T12:51:14.922Z,1.75
2022-09-15T12:52:46.555Z,1.60
2022-09-15T12:54:17.987Z,1.60
2022-09-15T12:55:49.606Z,1.64
2022-09-15T12:57:21.154Z,1.51
2022-09-15T12:58:53.162Z,1.64
2022-09-15T13:00:24.700Z,1.64
2022-09-15T13:01:56.420Z,1.73
2022-09-15T13:03:28.674Z,1.51
2022-09-15T13:05:00.521Z,1.97
2022-09-15T13:06:31.925Z,1.92
2022-09-15T13:08:03.637Z,1.84
2022-09-15T13:09:35.032Z,1.81
2022-09-15T13:11:06.429Z,1.69
2022-09-15T13:12:37.902Z,1.52
2022-09-15T13:14:09.295Z,1.50
2022-09-15T13:15:40.847Z,1.66
2022-09-15T13:17:12.641Z,1.43
2022-09-15T13:18:44.415Z,1.60
2022-09-15T13:20:16.026Z,1.46
2022-09-15T13:21:52.856Z,1.76
2022-09-15T13:23:24.566Z,1.73
2022-09-15T13:24:59.197Z,1.78
2022-09-15T13:26:33.215Z,1.67
2022-09-15T13:28:05.087Z,1.65
2022-09-15T13:29:36.492Z,1.82
2022-09-15T13:31:08.257Z,1.77
2022-09-15T13:32:40.000Z,1.97
2022-09-15T13:36:13.004Z,1.74
2022-09-15T13:38:16.855Z,1.63
2022-09-15T13:39:52.556Z,1.43
2022-09-15T13:41:24.156Z,1.62
2022-09-15T13:42:55.698Z,1.39
2022-09-15T13:44:27.217Z,1.72
2022-09-15T13:45:59.161Z,1.75
2022-09-15T13:47:30.754Z,1.88
2022-09-15T13:49:02.404Z,2.20
2022-09-15T13:50:33.758Z,1.62
2022-09-15T13:52:05.349Z,1.90
2022-09-15T13:53:36.908Z,1.61
2022-09-15T13:55:08.637Z,1.67
2022-09-15T13:56:40.344Z,1.44
2022-09-15T14:00:19.558Z,1.40
2022-09-15T14:01:53.932Z,1.56
2022-09-15T14:03:25.869Z,1.42
2022-09-15T14:04:57.782Z,1.42
2022-09-15T14:06:29.346Z,1.41
2022-09-15T14:08:01.511Z,1.32
2022-09-15T14:09:33.358Z,1.44
2022-09-15T14:11:04.888Z,1.47
2022-09-15T14:12:36.511Z,1.67
2022-09-15T14:14:07.887Z,1.48
2022-09-15T14:15:39.859Z,1.52
2022-09-15T14:17:11.470Z,1.55
2022-09-15T14:18:43.138Z,1.49
2022-09-15T14:20:15.113Z,1.66
2022-09-15T14:21:46.733Z,1.44
2022-09-15T14:23:18.259Z,1.47
2022-09-15T14:24:49.717Z,1.48
2022-09-15T14:26:21.466Z,1.61
2022-09-15T14:27:52.913Z,1.53
2022-09-15T14:29:25.165Z,1.33
2022-09-15T14:30:57.483Z,1.52
2022-09-15T14:32:29.291Z,1.42
2022-09-15T14:34:00.895Z,1.77
2022-09-15T14:35:32.661Z,1.67
2022-09-15T14:37:04.369Z,1.68
2022-09-15T14:38:36.245Z,1.72
2022-09-15T14:40:07.871Z,1.60
2022-09-15T14:41:39.369Z,1.81
2022-09-15T14:43:11.211Z,1.75
2022-09-15T14:46:44.258Z,1.41
2022-09-15T14:48:15.739Z,1.53
2022-09-15T14:49:47.236Z,1.77
2022-09-15T14:51:18.838Z,1.49
2022-09-15T14:52:50.417Z,1.38
2022-09-15T14:54:21.866Z,1.68
2022-09-15T14:55:53.315Z,1.39
2022-09-15T14:57:28.805Z,1.49
2022-09-15T14:59:02.332Z,1.66
2022-09-15T15:00:34.027Z,1.66
2022-09-15T15:02:05.495Z,1.67
2022-09-15T15:03:36.933Z,1.65
2022-09-15T15:05:08.422Z,1.56
2022-09-15T15:06:39.893Z,1.83
2022-09-15T15:08:11.395Z,1.56
2022-09-15T15:09:43.979Z,1.55
2022-09-15T15:11:15.538Z,1.48
2022-09-15T15:12:46.967Z,1.48
2022-09-15T15:14:18.626Z,1.44
2022-09-15T15:15:50.044Z,1.37
2022-09-15T15:17:21.701Z,1.56
2022-09-15T15:18:54.380Z,1.66
2022-09-15T15:20:26.204Z,1.52
2022-09-15T15:21:59.343Z,1.42
2022-09-15T15:23:30.922Z,1.60
2022-09-15T15:25:03.123Z,1.70
2022-09-15T15:26:34.521Z,1.54
2022-09-15T15:28:06.393Z,1.57
2022-09-15T15:29:37.908Z,1.58
2022-09-15T15:31:09.502Z,1.43
2022-09-15T15:32:41.001Z,1.52
2022-09-15T15:34:17.529Z,1.38
2022-09-15T15:35:49.035Z,1.44
2022-09-15T15:37:20.413Z,1.28
2022-09-15T15:38:52.165Z,1.32
2022-09-15T15:40:23.635Z,1.44
2022-09-15T15:41:55.054Z,1.40
2022-09-15T15:43:26.570Z,1.41
2022-09-15T15:44:58.208Z,1.60
2022-09-15T15:46:29.624Z,1.47
2022-09-15T15:48:01.263Z,1.56
2022-09-15T15:49:32.956Z,1.58
2022-09-15T15:51:04.623Z,1.51
2022-09-15T15:52:36.305Z,1.42
2022-09-15T15:54:08.186Z,1.52
2022-09-15T15:55:40.129Z,1.51
2022-09-15T15:57:12.010Z,1.62
2022-09-15T15:58:43.955Z,1.61
2022-09-15T16:00:20.360Z,1.45
2022-09-15T16:01:53.094Z,1.58
2022-09-15T16:03:25.019Z,1.65
2022-09-15T16:04:56.925Z,1.52
2022-09-15T16:06:28.771Z,1.65
2022-09-15T16:08:00.393Z,2.07
2022-09-15T16:09:31.921Z,2.24
2022-09-15T16:11:03.853Z,2.17
2022-09-15T16:12:35.668Z,2.19
2022-09-15T16:14:07.383Z,2.64
2022-09-15T16:15:38.813Z,2.47
2022-09-15T16:17:10.274Z,2.45
2022-09-15T16:18:41.602Z,2.39
2022-09-15T16:20:13.039Z,2.26
2022-09-15T16:21:44.556Z,2.33
2022-09-15T16:23:16.192Z,2.30
2022-09-15T16:24:47.669Z,2.06
2022-09-15T16:26:20.236Z,2.20
2022-09-15T16:27:51.796Z,2.17
2022-09-15T16:29:24.813Z,2.13
2022-09-15T16:30:56.366Z,1.88
2022-09-15T16:32:27.921Z,2.46
2022-09-15T16:33:59.211Z,2.30
2022-09-15T16:35:30.633Z,2.92
2022-09-15T16:37:02.076Z,3.11
2022-09-15T16:38:33.601Z,2.63
2022-09-15T16:40:05.169Z,2.37
2022-09-15T16:41:39.235Z,2.77
2022-09-15T16:43:16.088Z,2.84
2022-09-15T16:44:47.472Z,3.01
2022-09-15T16:46:18.937Z,2.80
2022-09-15T16:47:50.871Z,2.70
2022-09-15T16:49:22.508Z,2.95
2022-09-15T16:51:20.373Z,10.41
2022-09-15T16:52:55.246Z,7.23
2022-09-15T16:54:45.483Z,4.15
2022-09-15T16:56:21.854Z,4.15
2022-09-15T16:57:53.432Z,5.45
2022-09-15T16:59:25.217Z,4.30
2022-09-15T17:00:56.615Z,3.44
2022-09-15T17:02:28.211Z,4.03
2022-09-15T17:03:59.968Z,5.65
2022-09-15T17:05:31.549Z,4.36
2022-09-15T17:07:03.091Z,3.21
2022-09-15T17:08:34.703Z,2.74
2022-09-15T17:10:05.966Z,2.82
2022-09-15T17:11:37.395Z,3.67
2022-09-15T17:13:08.850Z,2.16
2022-09-15T17:14:40.486Z,2.60
2022-09-15T17:16:11.971Z,2.30
2022-09-15T17:17:43.347Z,1.76
2022-09-15T17:19:15.063Z,1.97
2022-09-15T17:20:46.908Z,2.03
2022-09-15T17:22:18.771Z,1.83
2022-09-15T17:23:50.054Z,2.06
2022-09-15T17:25:21.647Z,1.76
2022-09-15T17:26:53.137Z,1.83
2022-09-15T17:28:29.959Z,1.86
2022-09-15T17:30:01.620Z,1.88
2022-09-15T17:31:33.502Z,1.80
2022-09-15T17:33:04.927Z,1.92
2022-09-15T17:34:36.811Z,1.85
2022-09-15T17:36:08.168Z,1.79
2022-09-15T17:37:39.860Z,2.17
2022-09-15T17:39:11.337Z,2.68
2022-09-15T17:40:43.049Z,2.48
2022-09-15T17:42:14.406Z,4.09
2022-09-15T17:43:46.110Z,5.24
2022-09-15T17:45:17.598Z,4.15
2022-09-15T17:46:49.488Z,4.15
2022-09-15T17:48:21.115Z,4.63
2022-09-15T17:49:52.645Z,3.92
2022-09-15T17:51:28.961Z,3.86
2022-09-15T17:53:00.513Z,2.72
2022-09-15T17:54:32.071Z,2.06
2022-09-15T17:56:03.873Z,2.17
2022-09-15T17:57:35.878Z,2.66
2022-09-15T17:59:07.386Z,2.22
2022-09-15T18:00:43.760Z,1.71
2022-09-15T18:02:15.395Z,2.02
2022-09-15T18:03:46.975Z,1.81
2022-09-15T18:05:18.546Z,1.94
2022-09-15T18:06:50.024Z,1.64
2022-09-15T18:08:21.583Z,1.59
2022-09-15T18:09:53.252Z,1.88
2022-09-15T18:11:24.729Z,2.89
2022-09-15T18:12:56.298Z,2.48
2022-09-15T18:14:27.594Z,2.14
2022-09-15T18:15:59.126Z,1.97
2022-09-15T18:17:30.554Z,1.79
2022-09-15T18:19:02.305Z,1.87
2022-09-15T18:20:34.802Z,1.80
2022-09-15T18:22:11.213Z,2.18
2022-09-15T18:23:42.692Z,2.07
2022-09-15T18:25:14.604Z,2.34
2022-09-15T18:26:46.125Z,2.09
2022-09-15T18:28:17.417Z,1.80
2022-09-15T18:29:48.875Z,1.80
2022-09-15T18:31:20.204Z,1.86
2022-09-15T18:32:51.783Z,1.62
2022-09-15T18:34:23.715Z,1.55
2022-09-15T18:35:55.199Z,2.05
2022-09-15T18:37:26.735Z,1.56
2022-09-15T18:38:58.174Z,1.63
2022-09-15T18:40:29.541Z,1.51
2022-09-15T18:42:01.551Z,1.62
2022-09-15T18:43:33.038Z,1.58
2022-09-15T18:45:04.395Z,1.64
2022-09-15T18:46:36.005Z,1.58
2022-09-15T18:48:12.037Z,1.63
2022-09-15T18:49:44.585Z,1.57
2022-09-15T18:51:29.126Z,1.46
2022-09-15T18:53:06.422Z,1.62
2022-09-15T18:54:37.770Z,1.52
2022-09-15T18:56:09.424Z,1.61
2022-09-15T18:57:40.822Z,1.49
2022-09-15T18:59:15.536Z,1.65
2022-09-15T19:00:49.439Z,1.43
2022-09-15T19:02:21.475Z,1.50
2022-09-15T19:03:53.016Z,1.55
2022-09-15T19:05:24.476Z,1.48
2022-09-15T19:06:56.384Z,1.62
2022-09-15T19:08:27.655Z,1.56
2022-09-15T19:09:59.116Z,1.44
2022-09-15T19:11:31.879Z,1.73
2022-09-15T19:13:03.653Z,1.55
2022-09-15T19:14:35.068Z,1.43
2022-09-15T19:16:07.010Z,1.46
2022-09-15T19:17:39.060Z,1.45
2022-09-15T19:19:10.563Z,1.47
2022-09-15T19:20:58.991Z,1.58
2022-09-15T19:22:30.745Z,1.39
2022-09-15T19:24:02.103Z,1.43
2022-09-15T19:25:54.581Z,1.26
2022-09-15T19:27:41.354Z,1.59
2022-09-15T19:29:18.314Z,1.50
2022-09-15T19:31:10.715Z,1.36
2022-09-15T19:32:47.138Z,1.35
2022-09-15T19:34:28.605Z,1.52
2022-09-15T19:36:30.839Z,1.35
2022-09-15T19:38:03.407Z,1.46
2022-09-15T19:39:45.013Z,1.70
2022-09-15T19:41:32.186Z,1.46
2022-09-15T19:43:14.717Z,1.53
2022-09-15T19:44:52.179Z,1.37
2022-09-15T19:46:34.321Z,1.59
2022-09-15T19:48:45.589Z,1.70
2022-09-15T19:50:33.258Z,1.36
2022-09-15T19:52:04.596Z,1.61
2022-09-15T19:53:44.898Z,1.50
2022-09-15T19:55:43.072Z,1.92
2022-09-15T19:57:25.613Z,1.91
2022-09-15T19:59:05.742Z,2.08
2022-09-15T20:00:47.700Z,1.59
2022-09-15T20:02:19.540Z,1.54
2022-09-15T20:03:56.709Z,1.42
2022-09-15T20:05:29.023Z,1.42
2022-09-15T20:07:20.073Z,1.48
2022-09-15T20:09:03.431Z,1.05
2022-09-15T20:10:41.317Z,1.32
2022-09-15T20:12:35.058Z,1.39
2022-09-15T20:14:27.138Z,1.43
2022-09-15T20:16:28.785Z,1.29
2022-09-15T20:18:10.895Z,1.26
2022-09-15T20:20:09.312Z,1.14
2022-09-15T20:22:00.720Z,1.22
2022-09-15T20:25:43.330Z,1.15